createdAt,value
2019-03-19T00:01:50.012Z,3.10
2019-03-19T00:04:20.478Z,3.10
2019-03-19T00:06:53.954Z,3.00
2019-03-19T00:09:26.804Z,2.90
2019-03-19T00:11:58.004Z,2.90
2019-03-19T00:17:35.973Z,2.90
2019-03-19T00:20:16.144Z,2.80
2019-03-19T00:22:54.892Z,2.80
2019-03-19T00:25:30.049Z,2.90
2019-03-19T00:27:59.949Z,2.80
2019-03-19T00:30:30.758Z,2.80
2019-03-19T00:33:03.023Z,2.80
2019-03-19T00:35:34.038Z,2.80
2019-03-19T00:38:05.682Z,2.80
2019-03-19T00:40:37.337Z,2.80
2019-03-19T00:43:10.357Z,2.80
2019-03-19T00:45:46.236Z,2.80
2019-03-19T00:48:16.858Z,2.50
2019-03-19T00:50:47.505Z,2.70
2019-03-19T00:53:18.521Z,2.70
2019-03-19T00:55:49.174Z,2.60
2019-03-19T00:58:19.730Z,2.70
2019-03-19T01:00:54.195Z,2.70
2019-03-19T01:03:26.499Z,2.70
2019-03-19T01:05:58.646Z,2.70
2019-03-19T01:08:29.709Z,2.60
2019-03-19T01:11:00.268Z,2.60
2019-03-19T01:13:32.030Z,2.60
2019-03-19T01:16:02.727Z,2.60
2019-03-19T01:18:33.473Z,2.60
2019-03-19T01:21:04.159Z,2.50
2019-03-19T01:23:39.560Z,2.50
2019-03-19T01:26:09.855Z,2.40
2019-03-19T01:28:40.843Z,2.50
2019-03-19T01:31:13.980Z,2.40
2019-03-19T01:33:45.392Z,2.40
2019-03-19T01:36:16.142Z,2.40
2019-03-19T01:38:46.690Z,2.40
2019-03-19T01:41:17.854Z,2.40
2019-03-19T01:43:48.332Z,2.40
2019-03-19T01:46:19.183Z,2.50
2019-03-19T01:48:50.019Z,2.40
2019-03-19T01:51:21.082Z,2.50
2019-03-19T01:53:52.205Z,2.50
2019-03-19T01:56:25.039Z,2.50
2019-03-19T01:58:55.585Z,2.40
2019-03-19T02:01:30.159Z,2.40
2019-03-19T02:04:00.713Z,2.40
2019-03-19T02:06:31.354Z,2.30
2019-03-19T02:09:02.484Z,2.30
2019-03-19T02:11:33.056Z,2.20
2019-03-19T02:14:03.670Z,2.20
2019-03-19T02:16:34.283Z,2.20
2019-03-19T02:28:29.123Z,2.00
2019-03-19T02:30:59.927Z,2.00
2019-03-19T02:33:31.282Z,1.90
2019-03-19T02:36:05.236Z,1.90
2019-03-19T02:38:35.808Z,1.90
2019-03-19T02:41:06.324Z,1.90
2019-03-19T02:43:41.614Z,1.80
2019-03-19T02:46:12.357Z,1.80
2019-03-19T02:48:42.960Z,1.90
2019-03-19T02:51:14.016Z,1.70
2019-03-19T02:53:48.107Z,1.70
2019-03-19T02:56:31.777Z,1.70
2019-03-19T02:58:51.052Z,1.70
2019-03-19T03:01:21.745Z,1.60
2019-03-19T03:03:53.488Z,1.70
2019-03-19T03:06:27.478Z,1.60
2019-03-19T03:08:58.500Z,1.60
2019-03-19T03:11:31.221Z,1.60
2019-03-19T03:14:03.788Z,1.60
2019-03-19T03:16:34.402Z,1.60
2019-03-19T03:19:09.674Z,1.60
2019-03-19T03:21:40.633Z,1.60
2019-03-19T03:24:12.078Z,1.60
2019-03-19T03:26:48.343Z,1.60
2019-03-19T03:29:18.343Z,1.50
2019-03-19T03:31:49.391Z,1.50
2019-03-19T03:34:19.885Z,1.50
2019-03-19T03:36:50.494Z,1.50
2019-03-19T03:39:21.148Z,1.40
2019-03-19T03:41:56.459Z,1.50
2019-03-19T03:44:27.037Z,1.50
2019-03-19T03:46:57.779Z,1.50
2019-03-19T03:49:30.076Z,1.60
2019-03-19T03:52:01.144Z,1.60
2019-03-19T03:54:32.807Z,1.60
2019-03-19T03:57:04.151Z,1.60
2019-03-19T03:59:34.758Z,1.60
2019-03-19T04:04:42.426Z,1.50
2019-03-19T04:07:13.484Z,1.50
2019-03-19T04:09:44.088Z,1.60
2019-03-19T04:12:15.480Z,1.50
2019-03-19T04:14:46.893Z,1.50
2019-03-19T04:17:17.875Z,1.50
2019-03-19T04:19:51.269Z,1.50
2019-03-19T04:22:22.335Z,1.50
2019-03-19T04:24:53.337Z,1.40
2019-03-19T04:27:26.238Z,1.40
2019-03-19T04:33:05.766Z,1.50
2019-03-19T04:35:42.217Z,1.50
2019-03-19T04:38:12.770Z,1.50
2019-03-19T04:40:46.488Z,1.60
2019-03-19T04:43:17.096Z,1.60
2019-03-19T04:45:50.250Z,1.60
2019-03-19T04:48:20.003Z,1.80
2019-03-19T04:50:51.059Z,1.70
2019-03-19T04:53:24.043Z,1.60
2019-03-19T04:55:53.900Z,1.60
2019-03-19T04:58:25.624Z,1.60
2019-03-19T05:00:56.130Z,1.70
2019-03-19T05:03:26.672Z,1.60
2019-03-19T05:06:01.509Z,1.60
2019-03-19T05:08:32.184Z,1.50
2019-03-19T05:11:02.730Z,1.60
2019-03-19T05:13:33.174Z,1.60
2019-03-19T05:16:03.933Z,1.70
2019-03-19T05:18:34.494Z,1.70
2019-03-19T05:21:05.098Z,1.70
2019-03-19T05:23:35.616Z,1.80
2019-03-19T05:26:10.123Z,1.90
2019-03-19T05:28:40.712Z,2.00
2019-03-19T05:31:11.301Z,2.20
2019-03-19T05:33:41.739Z,2.30
2019-03-19T05:36:12.340Z,2.50
2019-03-19T05:38:42.848Z,2.60
2019-03-19T05:41:13.387Z,2.70
2019-03-19T05:43:43.864Z,2.90
2019-03-19T05:46:14.412Z,3.10
2019-03-19T05:48:46.212Z,3.30
2019-03-19T05:51:16.762Z,3.30
2019-03-19T05:53:47.138Z,3.40
2019-03-19T05:56:17.568Z,3.40
2019-03-19T05:58:48.849Z,3.50
2019-03-19T06:01:19.927Z,3.70
2019-03-19T06:03:50.419Z,3.80
2019-03-19T06:06:21.873Z,4.00
2019-03-19T06:08:52.920Z,4.50
2019-03-19T06:11:23.398Z,4.80
2019-03-19T06:13:53.860Z,4.90
2019-03-19T06:16:24.717Z,5.00
2019-03-19T06:18:55.132Z,5.30
2019-03-19T06:21:27.992Z,5.50
2019-03-19T06:23:59.545Z,6.40
2019-03-19T06:26:30.096Z,7.70
2019-03-19T06:29:00.504Z,8.60
2019-03-19T06:31:30.982Z,9.20
2019-03-19T06:34:01.388Z,9.60
2019-03-19T06:36:32.837Z,9.80
2019-03-19T06:39:04.864Z,10.00
2019-03-19T06:41:35.452Z,9.90
2019-03-19T06:44:09.751Z,10.00
2019-03-19T06:46:40.222Z,9.80
2019-03-19T06:49:10.701Z,9.30
2019-03-19T06:51:41.223Z,8.80
2019-03-19T06:54:11.679Z,8.20
2019-03-19T06:56:42.340Z,8.40
2019-03-19T06:59:12.872Z,8.50
2019-03-19T07:01:43.273Z,9.10
2019-03-19T07:04:13.785Z,10.00
2019-03-19T07:06:45.294Z,10.60
2019-03-19T07:09:15.840Z,10.60
2019-03-19T07:11:46.501Z,11.00
2019-03-19T07:14:16.994Z,11.10
2019-03-19T07:16:47.674Z,11.30
2019-03-19T07:19:18.325Z,11.70
2019-03-19T07:21:49.003Z,12.20
2019-03-19T07:24:19.426Z,12.80
2019-03-19T07:26:50.098Z,13.90
2019-03-19T07:29:20.599Z,15.20
2019-03-19T07:31:53.924Z,16.60
2019-03-19T07:34:24.342Z,16.50
2019-03-19T07:36:54.815Z,16.40
2019-03-19T07:39:25.626Z,15.50
2019-03-19T07:41:56.252Z,14.40
2019-03-19T07:44:26.879Z,13.50
2019-03-19T07:46:57.279Z,13.40
2019-03-19T07:49:29.473Z,13.20
2019-03-19T07:51:59.871Z,12.70
2019-03-19T07:54:30.284Z,12.00
2019-03-19T07:57:00.744Z,11.50
2019-03-19T07:59:31.244Z,11.30
2019-03-19T08:02:01.753Z,11.10
2019-03-19T08:04:35.291Z,11.10
2019-03-19T08:07:06.739Z,11.30
2019-03-19T08:09:38.992Z,11.60
2019-03-19T08:12:09.721Z,12.30
2019-03-19T08:14:40.213Z,12.90
2019-03-19T08:17:12.101Z,13.80
2019-03-19T08:19:42.634Z,14.50
2019-03-19T08:22:13.172Z,15.30
2019-03-19T08:24:43.634Z,15.60
2019-03-19T08:27:14.126Z,16.60
2019-03-19T08:29:44.592Z,17.50
2019-03-19T08:32:15.944Z,18.20
2019-03-19T08:34:46.592Z,18.00
2019-03-19T08:37:17.192Z,18.10
2019-03-19T08:39:47.780Z,17.70
2019-03-19T08:42:18.190Z,16.90
2019-03-19T08:44:48.618Z,16.00
2019-03-19T08:47:19.014Z,16.30
2019-03-19T08:52:18.222Z,16.00
2019-03-19T08:54:48.594Z,16.80
2019-03-19T08:57:19.241Z,17.00
2019-03-19T08:59:49.723Z,17.20
2019-03-19T09:02:20.195Z,17.40
2019-03-19T09:04:50.624Z,17.90
2019-03-19T09:07:21.931Z,18.40
2019-03-19T09:09:52.472Z,17.80
2019-03-19T09:12:22.890Z,17.80
2019-03-19T09:14:53.381Z,17.60
2019-03-19T09:17:23.890Z,17.30
2019-03-19T09:19:55.067Z,16.60
2019-03-19T09:22:29.525Z,16.10
2019-03-19T09:24:57.694Z,15.40
2019-03-19T09:27:28.110Z,15.10
2019-03-19T09:29:58.526Z,14.40
2019-03-19T09:32:29.054Z,13.80
2019-03-19T09:34:59.534Z,13.60
2019-03-19T09:37:30.157Z,13.70
2019-03-19T09:40:00.768Z,13.50
2019-03-19T09:42:32.103Z,13.50
2019-03-19T09:45:02.809Z,14.30
2019-03-19T09:47:33.478Z,14.30
2019-03-19T09:50:05.794Z,14.50
2019-03-19T09:52:36.281Z,14.70
2019-03-19T09:55:11.129Z,14.40
2019-03-19T09:57:41.717Z,14.30
2019-03-19T10:00:21.188Z,14.20
2019-03-19T10:02:52.014Z,13.60
2019-03-19T10:05:23.531Z,13.50
2019-03-19T10:07:55.762Z,13.70
2019-03-19T10:10:26.828Z,13.90
2019-03-19T10:12:57.487Z,14.10
2019-03-19T10:15:27.907Z,14.60
2019-03-19T10:17:58.295Z,14.90
2019-03-19T10:20:28.683Z,14.90
2019-03-19T10:22:59.253Z,14.90
2019-03-19T10:25:29.798Z,14.90
2019-03-19T10:28:00.450Z,15.40
2019-03-19T10:30:31.508Z,16.20
2019-03-19T10:33:02.083Z,16.40
2019-03-19T10:35:32.686Z,16.60
2019-03-19T10:38:15.074Z,17.00
2019-03-19T10:40:45.554Z,17.10
2019-03-19T10:43:16.194Z,16.90
2019-03-19T10:45:46.868Z,16.90
2019-03-19T10:48:20.477Z,16.70
2019-03-19T10:50:52.430Z,16.30
2019-03-19T10:53:22.877Z,15.50
2019-03-19T10:55:53.532Z,14.90
2019-03-19T10:58:27.988Z,13.80
2019-03-19T11:00:58.567Z,13.80
2019-03-19T11:03:30.216Z,13.40
2019-03-19T11:06:00.617Z,13.20
2019-03-19T11:08:32.059Z,13.30
2019-03-19T11:11:03.734Z,13.30
2019-03-19T11:13:35.165Z,13.20
2019-03-19T11:16:06.019Z,13.50
2019-03-19T11:18:36.650Z,13.40
2019-03-19T11:21:07.160Z,13.50
2019-03-19T11:23:37.558Z,13.60
2019-03-19T11:26:08.095Z,13.60
2019-03-19T11:28:38.579Z,13.40
2019-03-19T11:31:09.090Z,13.20
2019-03-19T11:33:39.571Z,13.20
2019-03-19T11:36:10.473Z,13.40
2019-03-19T11:38:41.075Z,13.40
2019-03-19T11:41:11.557Z,13.70
2019-03-19T11:43:42.052Z,13.70
2019-03-19T11:46:12.592Z,13.50
2019-03-19T11:48:43.546Z,13.20
2019-03-19T11:51:14.884Z,13.00
2019-03-19T11:53:45.308Z,12.90
2019-03-19T11:56:15.828Z,12.90
2019-03-19T11:58:46.380Z,12.90
2019-03-19T12:01:16.758Z,12.80
2019-03-19T12:03:47.323Z,12.70
2019-03-19T12:06:17.890Z,13.00
2019-03-19T12:08:49.222Z,13.30
2019-03-19T12:11:19.810Z,13.40
2019-03-19T12:13:50.290Z,13.30
2019-03-19T12:16:20.875Z,13.30
2019-03-19T12:18:51.332Z,13.60
2019-03-19T12:21:21.805Z,13.70
2019-03-19T12:23:53.090Z,13.70
2019-03-19T12:26:23.591Z,13.80
2019-03-19T12:28:54.298Z,13.50
2019-03-19T12:31:24.862Z,13.60
2019-03-19T12:33:55.421Z,13.70
2019-03-19T12:36:25.913Z,13.90
2019-03-19T12:38:56.330Z,13.90
2019-03-19T12:41:26.857Z,13.90
2019-03-19T12:43:57.338Z,13.90
2019-03-19T12:46:28.060Z,13.30
2019-03-19T12:48:58.506Z,12.80
2019-03-19T12:51:39.080Z,12.50
2019-03-19T12:54:10.378Z,12.40
2019-03-19T12:56:40.845Z,12.90
2019-03-19T12:59:19.775Z,12.60
2019-03-19T13:01:43.408Z,12.60
2019-03-19T13:04:14.111Z,12.60
2019-03-19T13:06:44.571Z,12.80
2019-03-19T13:09:15.966Z,12.60
2019-03-19T13:11:46.553Z,12.60
2019-03-19T13:14:17.026Z,12.90
2019-03-19T13:16:47.658Z,13.00
2019-03-19T13:19:28.498Z,13.40
2019-03-19T13:21:59.222Z,13.40
2019-03-19T13:24:29.833Z,13.30
2019-03-19T13:27:00.440Z,13.10
2019-03-19T13:29:30.993Z,12.80
2019-03-19T13:32:01.733Z,12.60
2019-03-19T13:34:32.368Z,12.40
2019-03-19T13:37:02.926Z,12.40
2019-03-19T13:39:34.652Z,12.20
2019-03-19T13:42:05.316Z,12.30
2019-03-19T13:44:36.476Z,12.40
2019-03-19T13:47:08.851Z,12.30
2019-03-19T13:49:43.427Z,12.60
2019-03-19T13:52:14.850Z,12.60
2019-03-19T13:54:47.402Z,12.60
2019-03-19T13:57:18.128Z,12.70
2019-03-19T13:59:51.120Z,12.70
2019-03-19T14:02:22.039Z,12.60
2019-03-19T14:04:57.152Z,12.60
2019-03-19T14:07:28.209Z,12.50
2019-03-19T14:09:59.640Z,12.50
2019-03-19T14:12:30.176Z,12.40
2019-03-19T14:15:00.698Z,12.30
2019-03-19T14:17:31.641Z,12.30
2019-03-19T14:20:03.320Z,12.40
2019-03-19T14:22:35.541Z,12.50
2019-03-19T14:25:09.347Z,12.50
2019-03-19T14:27:42.127Z,12.40
2019-03-19T14:30:26.713Z,12.50
2019-03-19T14:32:57.217Z,12.30
2019-03-19T14:35:37.322Z,12.40
2019-03-19T14:38:01.636Z,12.20
2019-03-19T14:40:34.740Z,12.10
2019-03-19T14:43:08.438Z,11.90
2019-03-19T14:45:39.370Z,11.90
2019-03-19T14:48:09.980Z,11.80
2019-03-19T14:50:40.502Z,11.50
2019-03-19T14:53:14.543Z,11.50
2019-03-19T14:55:45.192Z,11.50
2019-03-19T14:58:15.915Z,11.40
2019-03-19T15:00:46.547Z,11.40
2019-03-19T15:03:17.036Z,11.50
2019-03-19T15:05:47.677Z,11.60
2019-03-19T15:08:18.712Z,11.40
2019-03-19T15:10:49.649Z,11.40
2019-03-19T15:13:20.239Z,11.50
2019-03-19T15:15:50.959Z,11.40
2019-03-19T15:18:21.518Z,11.30
2019-03-19T15:20:53.073Z,11.30
2019-03-19T15:23:23.626Z,11.30
2019-03-19T15:25:54.221Z,11.30
2019-03-19T15:28:26.862Z,11.20
2019-03-19T15:30:58.065Z,11.00
2019-03-19T15:33:28.865Z,11.20
2019-03-19T15:35:59.275Z,11.20
2019-03-19T15:38:29.921Z,11.20
2019-03-19T15:40:59.617Z,11.50
2019-03-19T15:43:29.342Z,11.20
2019-03-19T15:45:59.926Z,11.10
2019-03-19T15:48:30.507Z,10.90
2019-03-19T15:51:01.088Z,10.60
2019-03-19T15:53:31.614Z,10.80
2019-03-19T15:56:02.193Z,10.80
2019-03-19T15:58:32.755Z,10.80
2019-03-19T16:01:18.717Z,10.90
2019-03-19T16:03:49.074Z,10.80
2019-03-19T16:06:19.569Z,10.80
2019-03-19T16:08:50.227Z,10.80
2019-03-19T16:11:23.875Z,10.80
2019-03-19T16:13:54.555Z,10.70
2019-03-19T16:16:25.260Z,10.70
2019-03-19T16:18:57.709Z,10.60
2019-03-19T16:21:28.175Z,10.60
2019-03-19T16:23:58.705Z,10.50
2019-03-19T16:26:29.270Z,10.40
2019-03-19T16:28:59.686Z,10.30
2019-03-19T16:31:30.286Z,10.20
2019-03-19T16:36:29.387Z,10.20
2019-03-19T16:39:00.599Z,10.10
2019-03-19T16:41:31.179Z,10.10
2019-03-19T16:44:02.725Z,10.00
2019-03-19T16:46:33.354Z,9.90
2019-03-19T16:49:04.145Z,9.90
2019-03-19T16:51:34.638Z,9.90
2019-03-19T16:54:05.847Z,9.80
2019-03-19T16:56:36.435Z,9.70
2019-03-19T16:59:07.017Z,9.60
2019-03-19T17:01:39.475Z,9.70
2019-03-19T17:04:11.932Z,9.60
2019-03-19T17:06:42.455Z,9.70
2019-03-19T17:09:13.016Z,9.70
2019-03-19T17:11:44.555Z,9.70
2019-03-19T17:14:15.010Z,9.60
2019-03-19T17:16:45.627Z,9.60
2019-03-19T17:19:16.147Z,9.60
2019-03-19T17:21:46.772Z,9.50
2019-03-19T17:24:17.422Z,9.50
2019-03-19T17:26:48.027Z,9.40
2019-03-19T17:29:18.644Z,9.30
2019-03-19T17:31:49.292Z,9.20
2019-03-19T17:34:22.123Z,9.30
2019-03-19T17:36:52.722Z,9.20
2019-03-19T17:39:23.273Z,9.20
2019-03-19T17:41:54.860Z,9.20
2019-03-19T17:44:25.466Z,9.10
2019-03-19T17:46:56.247Z,9.00
2019-03-19T17:49:27.063Z,9.00
2019-03-19T17:51:57.561Z,9.00
2019-03-19T17:54:28.256Z,9.00
2019-03-19T17:56:58.768Z,8.70
2019-03-19T17:59:29.401Z,8.70
2019-03-19T18:02:00.025Z,8.70
2019-03-19T18:04:30.512Z,8.60
2019-03-19T18:07:00.919Z,8.60
2019-03-19T18:09:31.675Z,8.60
2019-03-19T18:12:02.962Z,8.50
2019-03-19T18:14:35.011Z,8.40
2019-03-19T18:17:05.872Z,8.30
2019-03-19T18:19:36.423Z,8.30
2019-03-19T18:22:06.861Z,8.20
2019-03-19T18:24:37.517Z,8.20
2019-03-19T18:27:08.427Z,8.20
2019-03-19T18:29:39.044Z,8.10
2019-03-19T18:32:09.406Z,8.00
2019-03-19T18:34:40.609Z,8.00
2019-03-19T18:37:11.490Z,7.90
2019-03-19T18:39:42.090Z,7.80
2019-03-19T18:42:15.674Z,7.80
2019-03-19T18:44:46.239Z,7.70
2019-03-19T18:50:44.378Z,7.60
2019-03-19T18:53:14.980Z,7.50
2019-03-19T18:55:47.843Z,7.50
2019-03-19T18:58:18.593Z,7.50
2019-03-19T19:00:50.350Z,7.40
2019-03-19T19:03:21.965Z,7.30
2019-03-19T19:05:53.453Z,7.20
2019-03-19T19:08:24.010Z,7.30
2019-03-19T19:10:54.723Z,7.10
2019-03-19T19:13:30.470Z,7.10
2019-03-19T19:16:01.071Z,7.10
2019-03-19T19:18:31.698Z,7.00
2019-03-19T19:21:06.236Z,6.90
2019-03-19T19:23:35.979Z,6.80
2019-03-19T19:26:06.586Z,6.80
2019-03-19T19:28:38.473Z,6.70
2019-03-19T19:31:09.607Z,6.60
2019-03-19T19:33:43.189Z,6.60
2019-03-19T19:36:13.805Z,6.40
2019-03-19T19:38:48.450Z,6.40
2019-03-19T19:41:23.075Z,6.30
2019-03-19T19:43:51.579Z,6.30
2019-03-19T19:46:22.526Z,6.00
2019-03-19T19:48:54.027Z,6.10
2019-03-19T19:51:24.452Z,6.00
2019-03-19T19:53:55.716Z,6.00
2019-03-19T19:56:26.463Z,6.00
2019-03-19T19:58:56.961Z,5.90
2019-03-19T20:01:28.453Z,5.90
2019-03-19T20:03:59.011Z,5.80
2019-03-19T20:06:29.567Z,5.80
2019-03-19T20:09:00.057Z,5.80
2019-03-19T20:11:30.583Z,5.70
2019-03-19T20:14:01.766Z,5.60
2019-03-19T20:16:32.374Z,5.60
2019-03-19T20:19:04.127Z,5.60
2019-03-19T20:21:35.034Z,5.50
2019-03-19T20:24:06.086Z,5.40
2019-03-19T20:26:37.196Z,5.30
2019-03-19T20:29:07.824Z,5.30
2019-03-19T20:31:38.807Z,5.30
2019-03-19T20:34:09.398Z,5.30
2019-03-19T20:36:40.005Z,5.20
2019-03-19T20:39:11.500Z,5.20
2019-03-19T20:41:41.941Z,5.10
2019-03-19T20:44:12.611Z,5.10
2019-03-19T20:46:45.675Z,5.10
2019-03-19T20:49:16.187Z,5.10
2019-03-19T20:51:46.931Z,5.00
2019-03-19T20:54:18.247Z,5.00
2019-03-19T20:56:48.775Z,4.90
2019-03-19T20:59:19.914Z,4.90
2019-03-19T21:01:50.424Z,4.80
2019-03-19T21:04:21.145Z,4.80
2019-03-19T21:06:51.779Z,4.80
2019-03-19T21:09:22.417Z,4.70
2019-03-19T21:11:56.034Z,4.60
2019-03-19T21:14:27.596Z,4.40
2019-03-19T21:16:58.223Z,4.40
2019-03-19T21:19:28.699Z,4.30
2019-03-19T21:22:00.650Z,4.40
2019-03-19T21:24:32.839Z,4.30
2019-03-19T21:27:06.588Z,4.20
2019-03-19T21:29:38.033Z,4.20
2019-03-19T21:32:08.577Z,4.10
2019-03-19T21:34:39.424Z,4.00
2019-03-19T21:37:09.970Z,4.00
2019-03-19T21:39:41.390Z,4.00
2019-03-19T21:42:11.867Z,4.00
2019-03-19T21:44:42.422Z,4.00
2019-03-19T21:47:13.105Z,3.90
2019-03-19T21:49:45.467Z,3.80
2019-03-19T21:52:15.999Z,3.60
2019-03-19T21:54:46.646Z,3.60
2019-03-19T21:57:17.459Z,3.60
2019-03-19T21:59:51.099Z,3.60
2019-03-19T22:02:21.800Z,3.70
2019-03-19T22:04:52.795Z,3.50
2019-03-19T22:07:23.417Z,3.50
2019-03-19T22:09:55.025Z,3.50
2019-03-19T22:12:26.313Z,3.40
2019-03-19T22:14:58.515Z,3.40
2019-03-19T22:17:29.937Z,3.50
2019-03-19T22:20:00.637Z,3.40
2019-03-19T22:22:31.189Z,3.40
2019-03-19T22:25:02.993Z,3.30
2019-03-19T22:27:33.645Z,3.30
2019-03-19T22:30:05.858Z,3.30
2019-03-19T22:32:37.831Z,3.20
2019-03-19T22:35:29.222Z,3.20
2019-03-19T22:38:01.186Z,3.10
2019-03-19T22:40:33.472Z,3.10
2019-03-19T22:43:04.071Z,3.10
2019-03-19T22:45:43.154Z,3.10
2019-03-19T22:48:14.045Z,3.10
2019-03-19T22:50:45.185Z,3.10
2019-03-19T22:53:15.720Z,3.00
2019-03-19T22:55:46.729Z,3.00
2019-03-19T22:58:17.418Z,3.00
2019-03-19T23:00:50.450Z,2.80
2019-03-19T23:03:22.376Z,2.90
2019-03-19T23:05:52.974Z,2.80
2019-03-19T23:08:23.628Z,2.80
2019-03-19T23:10:54.269Z,2.70
2019-03-19T23:13:25.286Z,2.70
2019-03-19T23:15:59.782Z,2.70
2019-03-19T23:18:32.900Z,2.70
2019-03-19T23:21:03.582Z,2.60
2019-03-19T23:23:34.090Z,2.60
2019-03-19T23:26:04.806Z,2.60
2019-03-19T23:28:35.390Z,2.50
2019-03-19T23:31:06.433Z,2.40
2019-03-19T23:33:37.333Z,2.40
2019-03-19T23:36:08.028Z,2.30
2019-03-19T23:38:38.603Z,2.30
2019-03-19T23:41:09.140Z,2.20
2019-03-19T23:43:39.775Z,2.00
2019-03-19T23:46:10.691Z,2.10
2019-03-19T23:48:41.228Z,2.20
2019-03-19T23:51:11.845Z,2.10
2019-03-19T23:53:43.060Z,2.10
2019-03-19T23:56:13.696Z,2.20
2019-03-19T23:58:44.850Z,2.30
